createdAt,value
2022-11-14T00:00:53.735Z,6.46
2022-11-14T00:03:20.277Z,6.37
2022-11-14T00:05:46.796Z,5.19
2022-11-14T00:08:17.431Z,5.91
2022-11-14T00:10:46.480Z,6.40
2022-11-14T00:13:13.169Z,6.47
2022-11-14T00:15:39.687Z,6.53
2022-11-14T00:18:06.369Z,6.36
2022-11-14T00:20:33.150Z,5.93
2022-11-14T00:22:59.714Z,3.91
2022-11-14T00:25:26.175Z,4.39
2022-11-14T00:27:52.712Z,5.91
2022-11-14T00:30:19.160Z,6.26
2022-11-14T00:32:45.668Z,6.28
2022-11-14T00:35:12.021Z,5.38
2022-11-14T00:37:38.520Z,5.76
2022-11-14T00:40:05.422Z,6.28
2022-11-14T00:42:31.825Z,6.14
2022-11-14T00:44:58.202Z,5.66
2022-11-14T00:47:24.634Z,5.96
2022-11-14T00:49:51.029Z,5.85
2022-11-14T00:52:17.489Z,4.57
2022-11-14T00:54:43.869Z,5.13
2022-11-14T00:57:10.287Z,5.81
2022-11-14T00:59:36.718Z,6.10
2022-11-14T01:02:03.133Z,6.21
2022-11-14T01:04:29.541Z,6.39
2022-11-14T01:06:55.918Z,6.17
2022-11-14T01:09:22.529Z,6.11
2022-11-14T01:11:48.932Z,5.55
2022-11-14T01:14:15.319Z,5.83
2022-11-14T01:16:41.702Z,5.51
2022-11-14T01:19:08.541Z,6.17
2022-11-14T01:21:35.400Z,6.25
2022-11-14T01:24:01.840Z,6.30
2022-11-14T01:26:28.242Z,6.32
2022-11-14T01:28:54.652Z,6.38
2022-11-14T01:31:24.927Z,6.38
2022-11-14T01:33:53.791Z,6.41
2022-11-14T01:36:20.854Z,5.96
2022-11-14T01:38:51.389Z,5.68
2022-11-14T01:41:17.804Z,5.19
2022-11-14T01:43:44.285Z,4.54
2022-11-14T01:46:23.486Z,4.03
2022-11-14T01:49:01.911Z,3.48
2022-11-14T01:51:32.656Z,4.90
2022-11-14T01:54:01.990Z,5.64
2022-11-14T01:56:34.060Z,5.59
2022-11-14T01:59:23.383Z,6.01
2022-11-14T02:01:52.165Z,5.70
2022-11-14T02:04:31.548Z,5.81
2022-11-14T02:07:01.602Z,6.06
2022-11-14T02:09:32.238Z,5.68
2022-11-14T02:12:01.123Z,6.11
2022-11-14T02:14:30.148Z,5.10
2022-11-14T02:17:22.636Z,5.28
2022-11-14T02:20:09.215Z,5.92
2022-11-14T02:22:36.081Z,6.10
2022-11-14T02:25:02.690Z,6.21
2022-11-14T02:27:31.258Z,6.25
2022-11-14T02:30:10.679Z,6.18
2022-11-14T02:35:23.508Z,6.19
2022-11-14T02:37:49.972Z,6.30
2022-11-14T02:40:16.646Z,6.21
2022-11-14T02:42:43.307Z,6.25
2022-11-14T02:45:11.246Z,6.28
2022-11-14T02:47:37.863Z,6.28
2022-11-14T02:50:04.628Z,6.27
2022-11-14T02:52:31.175Z,6.28
2022-11-14T02:54:57.550Z,6.31
2022-11-14T02:57:23.967Z,6.30
2022-11-14T02:59:50.380Z,6.28
2022-11-14T03:02:16.866Z,6.31
2022-11-14T03:04:43.302Z,6.32
2022-11-14T03:07:09.713Z,6.35
2022-11-14T03:09:36.131Z,6.24
2022-11-14T03:12:02.527Z,6.29
2022-11-14T03:14:31.124Z,6.29
2022-11-14T03:16:57.837Z,6.21
2022-11-14T03:19:24.252Z,6.29
2022-11-14T03:21:50.700Z,6.30
2022-11-14T03:24:17.206Z,6.30
2022-11-14T03:26:43.641Z,6.32
2022-11-14T03:29:10.077Z,6.30
2022-11-14T03:31:36.493Z,6.30
2022-11-14T03:34:03.169Z,6.29
2022-11-14T03:36:29.600Z,6.30
2022-11-14T03:38:56.046Z,6.30
2022-11-14T03:41:22.465Z,6.22
2022-11-14T03:43:48.857Z,6.26
2022-11-14T03:46:15.245Z,6.31
2022-11-14T03:48:41.625Z,6.30
2022-11-14T03:51:08.079Z,6.25
2022-11-14T03:53:34.463Z,6.29
2022-11-14T03:56:00.905Z,6.21
2022-11-14T03:58:27.617Z,5.32
2022-11-14T04:00:56.090Z,5.93
2022-11-14T04:03:23.837Z,6.17
2022-11-14T04:05:50.843Z,5.91
2022-11-14T04:08:17.710Z,6.20
2022-11-14T04:10:47.258Z,6.24
2022-11-14T04:13:13.658Z,6.23
2022-11-14T04:15:40.268Z,6.31
2022-11-14T04:18:06.798Z,6.26
2022-11-14T04:20:33.203Z,6.26
2022-11-14T04:22:59.617Z,6.25
2022-11-14T04:25:26.013Z,6.25
2022-11-14T04:27:52.708Z,6.25
2022-11-14T04:30:19.226Z,5.24
2022-11-14T04:32:47.874Z,5.57
2022-11-14T04:35:14.341Z,6.18
2022-11-14T04:37:40.798Z,6.22
2022-11-14T04:40:08.071Z,5.66
2022-11-14T04:42:34.464Z,6.09
2022-11-14T04:45:00.882Z,5.68
2022-11-14T04:47:27.308Z,6.11
2022-11-14T04:49:53.707Z,4.90
2022-11-14T04:52:20.113Z,5.78
2022-11-14T04:54:46.508Z,5.08
2022-11-14T04:57:12.911Z,5.96
2022-11-14T04:59:39.384Z,6.12
2022-11-14T05:02:05.804Z,2.85
2022-11-14T05:04:32.255Z,5.15
2022-11-14T05:06:58.726Z,3.61
2022-11-14T05:09:25.182Z,5.59
2022-11-14T05:11:51.638Z,5.90
2022-11-14T05:14:18.024Z,5.92
2022-11-14T05:16:44.451Z,5.97
2022-11-14T05:19:10.848Z,5.95
2022-11-14T05:21:37.237Z,6.03
2022-11-14T05:24:03.902Z,5.26
2022-11-14T05:26:30.435Z,5.05
2022-11-14T05:28:56.917Z,5.58
2022-11-14T05:31:23.339Z,5.91
2022-11-14T05:33:50.272Z,5.98
2022-11-14T05:36:17.229Z,6.05
2022-11-14T05:38:44.587Z,6.01
2022-11-14T05:41:16.974Z,6.04
2022-11-14T05:43:43.896Z,5.98
2022-11-14T05:46:12.707Z,6.08
2022-11-14T05:48:39.737Z,5.99
2022-11-14T05:51:07.926Z,5.35
2022-11-14T05:53:34.746Z,5.93
2022-11-14T05:56:06.624Z,5.96
2022-11-14T05:58:34.695Z,5.55
2022-11-14T06:01:06.611Z,4.01
2022-11-14T06:03:39.013Z,5.74
2022-11-14T06:06:07.256Z,5.84
2022-11-14T06:08:34.461Z,5.96
2022-11-14T06:11:15.950Z,5.58
2022-11-14T06:13:42.783Z,5.77
2022-11-14T06:16:14.664Z,5.94
2022-11-14T06:18:41.337Z,5.88
2022-11-14T06:21:11.829Z,5.96
2022-11-14T06:23:38.693Z,5.97
2022-11-14T06:26:07.374Z,5.98
2022-11-14T06:28:34.146Z,4.86
2022-11-14T06:31:02.584Z,5.84
2022-11-14T06:33:33.461Z,5.53
2022-11-14T06:36:05.828Z,5.61
2022-11-14T06:38:34.149Z,5.90
2022-11-14T06:41:08.809Z,4.84
2022-11-14T06:43:36.597Z,2.75
2022-11-14T06:46:04.112Z,3.57
2022-11-14T06:48:31.541Z,4.83
2022-11-14T06:50:59.569Z,5.55
2022-11-14T06:53:29.148Z,5.63
2022-11-14T06:56:10.510Z,5.18
2022-11-14T06:58:40.079Z,5.44
2022-11-14T07:01:12.034Z,5.69
2022-11-14T07:03:38.694Z,3.75
2022-11-14T07:06:06.084Z,5.45
2022-11-14T07:08:33.943Z,5.61
2022-11-14T07:11:25.333Z,5.57
2022-11-14T07:14:02.638Z,4.50
2022-11-14T07:16:31.339Z,5.41
2022-11-14T07:18:59.364Z,5.63
2022-11-14T07:21:27.779Z,5.71
2022-11-14T07:23:54.686Z,4.66
2022-11-14T07:26:21.321Z,3.43
2022-11-14T07:28:51.945Z,3.38
2022-11-14T07:31:20.565Z,5.38
2022-11-14T07:33:47.966Z,5.59
2022-11-14T07:36:15.576Z,5.67
2022-11-14T07:38:42.164Z,5.26
2022-11-14T07:41:18.123Z,4.98
2022-11-14T07:43:45.316Z,5.01
2022-11-14T07:46:14.311Z,6.19
2022-11-14T07:48:41.135Z,6.88
2022-11-14T07:51:10.363Z,6.62
2022-11-14T07:53:36.777Z,6.12
2022-11-14T07:56:06.178Z,6.14
2022-11-14T07:58:35.306Z,5.25
2022-11-14T08:01:02.711Z,5.74
2022-11-14T08:03:29.567Z,6.53
2022-11-14T08:06:11.229Z,6.09
2022-11-14T08:08:37.669Z,7.62
2022-11-14T08:11:04.634Z,8.79
2022-11-14T08:13:33.373Z,6.39
2022-11-14T08:16:12.411Z,8.74
2022-11-14T08:18:40.176Z,9.78
2022-11-14T08:21:06.805Z,7.16
2022-11-14T08:23:33.313Z,6.34
2022-11-14T08:26:00.226Z,8.45
2022-11-14T08:28:27.115Z,8.41
2022-11-14T08:30:59.205Z,6.50
2022-11-14T08:33:25.593Z,6.41
2022-11-14T08:35:51.982Z,8.62
2022-11-14T08:38:18.369Z,6.81
2022-11-14T08:40:44.763Z,7.39
2022-11-14T08:43:11.712Z,6.71
2022-11-14T08:45:38.186Z,10.90
2022-11-14T08:48:05.714Z,9.46
2022-11-14T08:50:32.353Z,7.38
2022-11-14T08:52:58.858Z,8.93
2022-11-14T08:55:25.290Z,9.74
2022-11-14T08:57:53.509Z,6.97
2022-11-14T09:00:20.308Z,6.70
2022-11-14T09:02:47.104Z,10.17
2022-11-14T09:05:13.541Z,9.13
2022-11-14T09:07:40.161Z,12.37
2022-11-14T09:10:07.255Z,11.72
2022-11-14T09:12:34.242Z,9.94
2022-11-14T09:15:00.829Z,10.02
2022-11-14T09:17:27.241Z,11.51
2022-11-14T09:19:54.120Z,9.95
2022-11-14T09:22:20.568Z,12.43
2022-11-14T09:24:47.712Z,8.95
2022-11-14T09:27:14.216Z,13.57
2022-11-14T09:29:40.650Z,15.09
2022-11-14T09:32:07.033Z,13.45
2022-11-14T09:34:33.545Z,10.50
2022-11-14T09:36:59.938Z,14.06
2022-11-14T09:39:26.358Z,11.46
2022-11-14T09:42:00.984Z,8.77
2022-11-14T09:44:53.969Z,11.28
2022-11-14T09:47:25.995Z,14.73
2022-11-14T09:49:59.382Z,15.73
2022-11-14T09:52:46.027Z,13.28
2022-11-14T09:55:17.718Z,15.30
2022-11-14T09:57:46.298Z,15.70
2022-11-14T10:00:55.460Z,16.45
2022-11-14T10:03:24.916Z,16.20
2022-11-14T10:06:22.606Z,14.79
2022-11-14T10:09:06.566Z,16.24
2022-11-14T10:11:41.018Z,11.34
2022-11-14T10:14:32.326Z,9.16
2022-11-14T10:17:14.270Z,14.04
2022-11-14T10:20:10.118Z,17.45
2022-11-14T10:23:01.333Z,13.00
2022-11-14T10:25:51.745Z,14.26
2022-11-14T10:28:39.788Z,16.41
2022-11-14T10:31:43.364Z,11.84
2022-11-14T10:34:20.281Z,9.71
2022-11-14T10:37:20.798Z,11.85
2022-11-14T10:39:52.383Z,11.27
2022-11-14T10:42:36.423Z,17.92
2022-11-14T10:45:18.035Z,17.57
2022-11-14T10:47:49.761Z,14.27
2022-11-14T10:50:21.283Z,14.97
2022-11-14T10:52:52.474Z,12.88
2022-11-14T10:55:24.804Z,16.47
2022-11-14T10:58:13.609Z,14.85
2022-11-14T11:00:40.037Z,11.19
2022-11-14T11:03:07.576Z,17.49
2022-11-14T11:05:47.298Z,18.58
2022-11-14T11:08:43.186Z,16.78
2022-11-14T11:11:30.146Z,15.64
2022-11-14T11:14:01.066Z,14.53
2022-11-14T11:16:29.628Z,13.30
2022-11-14T11:19:21.415Z,10.95
2022-11-14T11:21:50.545Z,13.04
2022-11-14T11:24:32.397Z,14.51
2022-11-14T11:27:19.016Z,12.28
2022-11-14T11:29:46.241Z,12.67
2022-11-14T11:32:24.233Z,13.40
2022-11-14T11:34:51.865Z,13.12
2022-11-14T11:37:24.434Z,13.51
2022-11-14T11:40:02.110Z,12.91
2022-11-14T11:43:23.736Z,13.71
2022-11-14T11:45:23.341Z,13.56
2022-11-14T11:48:08.650Z,12.49
2022-11-14T11:50:35.298Z,12.12
2022-11-14T11:53:26.244Z,11.24
2022-11-14T11:56:01.339Z,13.09
2022-11-14T11:58:37.484Z,11.80
2022-11-14T12:01:04.078Z,12.42
2022-11-14T12:03:30.826Z,13.57
2022-11-14T12:06:18.121Z,13.91
2022-11-14T12:09:04.543Z,13.86
2022-11-14T12:11:34.759Z,13.71
2022-11-14T12:14:01.141Z,12.52
2022-11-14T12:16:57.702Z,12.97
2022-11-14T12:19:42.836Z,13.51
2022-11-14T12:22:37.198Z,12.11
2022-11-14T12:25:36.478Z,13.40
2022-11-14T12:28:22.455Z,11.46
2022-11-14T12:30:53.825Z,12.02
2022-11-14T12:33:34.062Z,11.71
2022-11-14T12:36:04.910Z,12.51
2022-11-14T12:38:42.412Z,12.22
2022-11-14T12:41:09.821Z,12.37
2022-11-14T12:43:43.159Z,12.48
2022-11-14T12:46:12.876Z,11.00
2022-11-14T12:48:41.690Z,10.46
2022-11-14T12:51:26.686Z,11.15
2022-11-14T12:53:55.128Z,10.02
2022-11-14T12:56:30.503Z,9.91
2022-11-14T12:59:24.720Z,9.85
2022-11-14T13:01:54.312Z,9.92
2022-11-14T13:04:50.339Z,11.40
2022-11-14T13:07:32.738Z,12.35
2022-11-14T13:10:09.898Z,12.39
2022-11-14T13:12:55.884Z,11.69
2022-11-14T13:15:48.823Z,12.18
2022-11-14T13:18:40.135Z,12.40
2022-11-14T13:21:42.342Z,11.30
2022-11-14T13:24:19.419Z,11.65
2022-11-14T13:26:48.822Z,11.69
2022-11-14T13:29:41.099Z,11.66
2022-11-14T13:32:11.754Z,10.37
2022-11-14T13:34:52.304Z,10.84
2022-11-14T13:37:43.919Z,10.91
2022-11-14T13:40:23.417Z,11.75
2022-11-14T13:43:12.747Z,12.22
2022-11-14T13:46:03.252Z,12.03
2022-11-14T13:48:58.541Z,12.13
2022-11-14T13:51:42.996Z,12.17
2022-11-14T13:54:17.977Z,12.18
2022-11-14T13:57:22.431Z,12.23
2022-11-14T14:00:03.059Z,12.13
2022-11-14T14:02:52.735Z,11.93
2022-11-14T14:05:37.884Z,10.98
2022-11-14T14:08:39.930Z,10.31
2022-11-14T14:11:43.018Z,9.96
2022-11-14T14:14:15.920Z,9.90
2022-11-14T14:17:07.221Z,10.16
2022-11-14T14:19:37.931Z,9.66
2022-11-14T14:22:11.465Z,9.97
2022-11-14T14:24:58.696Z,10.38
2022-11-14T14:27:52.882Z,10.00
2022-11-14T14:30:19.911Z,9.63
2022-11-14T14:33:07.342Z,9.76
2022-11-14T14:35:40.226Z,10.04
2022-11-14T14:38:12.975Z,10.29
2022-11-14T14:40:42.052Z,10.34
2022-11-14T14:43:25.526Z,9.97
2022-11-14T14:45:54.029Z,9.79
2022-11-14T14:48:27.380Z,9.83
2022-11-14T14:50:57.927Z,9.56
2022-11-14T14:53:26.127Z,9.76
2022-11-14T14:56:00.692Z,9.59
2022-11-14T14:58:29.556Z,9.67
2022-11-14T15:01:06.538Z,10.06
2022-11-14T15:03:39.691Z,9.84
2022-11-14T15:06:22.166Z,9.52
2022-11-14T15:08:49.461Z,9.40
2022-11-14T15:11:16.337Z,9.47
2022-11-14T15:13:43.218Z,9.61
2022-11-14T15:16:10.726Z,9.59
2022-11-14T15:18:37.800Z,9.62
2022-11-14T15:21:30.489Z,9.43
2022-11-14T15:24:14.444Z,9.36
2022-11-14T15:26:44.436Z,9.35
2022-11-14T15:29:20.178Z,9.27
2022-11-14T15:31:59.717Z,9.26
2022-11-14T15:34:34.611Z,9.26
2022-11-14T15:37:10.136Z,9.32
2022-11-14T15:39:37.669Z,9.33
2022-11-14T15:42:14.900Z,9.35
2022-11-14T15:44:45.177Z,8.81
2022-11-14T15:47:40.011Z,9.24
2022-11-14T15:50:31.196Z,9.13
2022-11-14T15:53:18.481Z,9.22
2022-11-14T15:55:44.922Z,9.23
2022-11-14T15:58:29.189Z,9.25
2022-11-14T16:00:56.526Z,9.32
2022-11-14T16:03:23.709Z,9.45
2022-11-14T16:05:50.131Z,9.11
2022-11-14T16:08:16.540Z,9.21
2022-11-14T16:10:42.993Z,9.11
2022-11-14T16:13:10.983Z,9.14
2022-11-14T16:15:37.525Z,9.18
2022-11-14T16:18:05.910Z,9.16
2022-11-14T16:20:37.774Z,9.23
2022-11-14T16:23:05.323Z,9.19
2022-11-14T16:25:32.366Z,9.12
2022-11-14T16:27:58.813Z,8.96
2022-11-14T16:30:25.872Z,8.73
2022-11-14T16:32:52.792Z,8.28
2022-11-14T16:35:24.967Z,8.98
2022-11-14T16:37:52.032Z,9.11
2022-11-14T16:40:25.476Z,9.12
2022-11-14T16:42:54.749Z,9.06
2022-11-14T16:45:21.842Z,9.08
2022-11-14T16:47:49.352Z,9.07
2022-11-14T16:50:16.180Z,9.05
2022-11-14T16:52:42.691Z,9.08
2022-11-14T16:55:11.629Z,8.02
2022-11-14T16:57:38.974Z,8.94
2022-11-14T17:00:07.916Z,8.92
2022-11-14T17:02:34.400Z,8.79
2022-11-14T17:05:00.831Z,8.45
2022-11-14T17:07:30.539Z,7.91
2022-11-14T17:09:56.881Z,6.30
2022-11-14T17:12:23.366Z,7.98
2022-11-14T17:14:49.770Z,8.60
2022-11-14T17:17:16.180Z,8.83
2022-11-14T17:19:46.026Z,7.23
2022-11-14T17:22:13.552Z,8.47
2022-11-14T17:24:40.358Z,7.16
2022-11-14T17:27:07.755Z,8.00
2022-11-14T17:29:34.311Z,8.71
2022-11-14T17:32:01.292Z,8.85
2022-11-14T17:34:28.033Z,8.76
2022-11-14T17:36:54.468Z,7.74
2022-11-14T17:39:20.993Z,6.16
2022-11-14T17:41:47.516Z,5.90
2022-11-14T17:44:13.961Z,8.06
2022-11-14T17:46:40.432Z,8.58
2022-11-14T17:49:06.910Z,8.31
2022-11-14T17:51:33.402Z,8.71
2022-11-14T17:53:59.853Z,8.83
2022-11-14T17:56:26.871Z,8.82
2022-11-14T17:58:53.649Z,8.72
2022-11-14T18:01:23.434Z,8.73
2022-11-14T18:03:50.514Z,7.27
2022-11-14T18:06:21.575Z,8.34
2022-11-14T18:08:48.518Z,8.66
2022-11-14T18:11:17.051Z,8.32
2022-11-14T18:13:43.774Z,8.58
2022-11-14T18:16:17.389Z,8.71
2022-11-14T18:18:44.080Z,8.78
2022-11-14T18:21:14.439Z,8.84
2022-11-14T18:23:41.094Z,8.73
2022-11-14T18:26:16.022Z,8.70
2022-11-14T18:28:43.445Z,7.24
2022-11-14T18:31:11.629Z,8.04
2022-11-14T18:33:38.662Z,8.54
2022-11-14T18:36:08.754Z,8.50
2022-11-14T18:38:35.409Z,7.54
2022-11-14T18:41:03.612Z,8.30
2022-11-14T18:43:32.559Z,7.67
2022-11-14T18:46:13.434Z,8.01
2022-11-14T18:48:41.417Z,8.47
2022-11-14T18:51:11.470Z,8.55
2022-11-14T18:53:37.956Z,8.36
2022-11-14T18:56:06.461Z,8.43
2022-11-14T18:58:33.466Z,8.64
2022-11-14T19:01:21.787Z,6.27
2022-11-14T19:03:48.207Z,6.75
2022-11-14T19:06:14.666Z,8.06
2022-11-14T19:08:41.296Z,8.36
2022-11-14T19:11:30.354Z,8.40
2022-11-14T19:13:57.559Z,8.49
2022-11-14T19:16:24.076Z,7.76
2022-11-14T19:18:50.460Z,8.36
2022-11-14T19:21:16.920Z,8.44
2022-11-14T19:23:43.424Z,8.44
2022-11-14T19:26:10.489Z,8.40
2022-11-14T19:28:37.008Z,8.46
2022-11-14T19:31:05.772Z,8.45
2022-11-14T19:33:33.249Z,8.41
2022-11-14T19:36:09.070Z,8.36
2022-11-14T19:38:35.614Z,8.45
2022-11-14T19:41:10.320Z,7.89
2022-11-14T19:43:37.980Z,6.11
2022-11-14T19:46:05.859Z,4.86
2022-11-14T19:48:33.479Z,3.93
2022-11-14T19:51:05.677Z,6.56
2022-11-14T19:53:36.022Z,7.79
2022-11-14T19:56:05.403Z,8.07
2022-11-14T19:58:31.900Z,8.08
2022-11-14T20:01:13.303Z,8.24
2022-11-14T20:03:40.425Z,8.15
2022-11-14T20:06:16.700Z,7.82
2022-11-14T20:08:43.116Z,7.36
2022-11-14T20:11:09.729Z,8.03
2022-11-14T20:13:38.629Z,5.97
2022-11-14T20:16:14.283Z,6.98
2022-11-14T20:18:42.607Z,6.96
2022-11-14T20:21:12.717Z,6.91
2022-11-14T20:23:39.149Z,7.77
2022-11-14T20:26:11.102Z,7.81
2022-11-14T20:28:42.741Z,8.06
2022-11-14T20:31:14.400Z,8.12
2022-11-14T20:33:43.022Z,8.15
2022-11-14T20:36:13.378Z,8.14
2022-11-14T20:38:40.007Z,8.15
2022-11-14T20:41:06.538Z,8.11
2022-11-14T20:43:34.349Z,8.08
2022-11-14T20:46:03.822Z,8.14
2022-11-14T20:48:33.562Z,8.11
2022-11-14T20:51:04.050Z,8.15
2022-11-14T20:53:31.711Z,8.08
2022-11-14T20:55:58.422Z,8.09
2022-11-14T20:58:24.803Z,8.15
2022-11-14T21:00:51.954Z,7.23
2022-11-14T21:03:19.194Z,7.89
2022-11-14T21:05:46.187Z,7.79
2022-11-14T21:08:14.229Z,7.98
2022-11-14T21:10:46.934Z,7.91
2022-11-14T21:13:34.274Z,5.27
2022-11-14T21:16:02.651Z,6.81
2022-11-14T21:18:29.622Z,7.66
2022-11-14T21:20:59.583Z,7.94
2022-11-14T21:23:25.992Z,7.97
2022-11-14T21:25:52.476Z,7.99
2022-11-14T21:28:18.877Z,8.03
2022-11-14T21:30:45.412Z,7.99
2022-11-14T21:33:11.789Z,5.85
2022-11-14T21:35:39.337Z,7.47
2022-11-14T21:38:05.739Z,7.87
2022-11-14T21:40:32.121Z,7.97
2022-11-14T21:42:58.512Z,7.93
2022-11-14T21:45:24.930Z,7.93
2022-11-14T21:47:51.350Z,7.59
2022-11-14T21:50:17.841Z,5.98
2022-11-14T21:52:44.249Z,6.93
2022-11-14T21:55:10.734Z,6.14
2022-11-14T21:57:37.114Z,6.90
2022-11-14T22:00:04.074Z,6.68
2022-11-14T22:02:49.097Z,7.01
2022-11-14T22:05:15.542Z,7.56
2022-11-14T22:07:42.124Z,7.75
2022-11-14T22:10:08.891Z,4.83
2022-11-14T22:12:35.373Z,7.11
2022-11-14T22:15:02.264Z,7.49
2022-11-14T22:17:28.873Z,7.63
2022-11-14T22:19:55.263Z,6.96
2022-11-14T22:22:21.641Z,7.56
2022-11-14T22:24:48.013Z,7.50
2022-11-14T22:27:14.418Z,7.60
2022-11-14T22:29:40.893Z,7.74
2022-11-14T22:32:07.312Z,4.54
2022-11-14T22:34:33.693Z,6.22
2022-11-14T22:37:00.102Z,6.18
2022-11-14T22:39:26.550Z,5.84
2022-11-14T22:41:53.260Z,5.55
2022-11-14T22:44:19.726Z,7.10
2022-11-14T22:46:46.365Z,6.59
2022-11-14T22:49:16.017Z,5.64
2022-11-14T22:51:44.847Z,6.26
2022-11-14T22:54:11.271Z,7.25
2022-11-14T22:56:37.675Z,6.34
2022-11-14T22:59:04.077Z,7.17
2022-11-14T23:01:32.759Z,7.25
2022-11-14T23:04:02.439Z,7.39
2022-11-14T23:06:30.108Z,7.40
2022-11-14T23:08:56.864Z,7.46
2022-11-14T23:11:26.211Z,7.41
2022-11-14T23:13:54.702Z,7.44
2022-11-14T23:16:23.755Z,6.83
2022-11-14T23:18:50.891Z,5.27
2022-11-14T23:21:22.227Z,6.91
2022-11-14T23:24:00.182Z,7.28
2022-11-14T23:26:27.955Z,6.38
2022-11-14T23:28:55.098Z,6.69
2022-11-14T23:31:21.960Z,7.22
2022-11-14T23:33:53.642Z,4.84
2022-11-14T23:36:20.388Z,5.96
2022-11-14T23:38:47.175Z,6.91
2022-11-14T23:41:22.101Z,3.63
2022-11-14T23:43:48.653Z,6.39
2022-11-14T23:46:15.594Z,6.96
2022-11-14T23:48:42.047Z,7.16
2022-11-14T23:51:09.671Z,7.13
2022-11-14T23:53:36.378Z,6.53
2022-11-14T23:56:02.816Z,6.93
2022-11-14T23:58:30.181Z,7.07
